This demonstration page uses our WeatherBlox Daily Observations layout. Learn more.

39.92423, -83.80882

Hourly Observations for September 18, 2016

Temp ( °F °C ) Dew Point ( °F °C ) Humidity (%) Winds ( mph kmh ) Pressure ( in mb ) Visibility ( mi km ) Precip ( " mm )
12:56 am 00:56 Cloudy 69 20.6 68 20 96 96 SW 7 11 30.01 1016 8 12.87472 0 0
1:15 am 01:15 Cloudy 68 20 66 19 94 94 SSW 7 11 30 1016 7 11.26538 0 0
1:36 am 01:36 Cloudy with Mist and Fog 68 20 66 19 94 94 SW 6 9 30 1016 6 9.65604 0 0
1:51 am 01:51 Cloudy with Mist and Fog 70 21 68 20 94 94 SW 5 7 30 1016 6 9.65604 0 0
1:56 am 01:56 Cloudy with Mist and Fog 69 20.6 68 20 96 96 SW 5 7 30 1016 6 9.65604 0 0
2:06 am 02:06 Cloudy with Mist and Fog 70 21 68 20 94 94 SW 5 7 30 1016 6 9.65604 0 0
2:19 am 02:19 Cloudy with Mist and Fog 68 20 68 20 100 100 SW 6 9 30 1016 5 8.0467 0 0
2:56 am 02:56 Cloudy with Mist and Fog 69 20.6 68 20 96 96 WSW 6 9 30 1016 5 8.0467 0 0
3:25 am 03:25 Cloudy with Mist and Fog 68 20 68 20 100 100 WSW 5 7 30 1016 4 6.43736 0 0
3:33 am 03:33 Cloudy with Mist and Fog 68 20 68 20 100 100 SW 5 7 30 1016 4 6.43736 0 0
3:56 am 03:56 Cloudy with Mist and Fog 69 20.6 68 20 96 96 Calm 29.99 1016 3 4.82802 0 0
4:03 am 04:03 Cloudy with Mist and Fog 70 21 68 20 94 94 WSW 3 6 30 1016 3 4.82802 0 0
4:35 am 04:35 Cloudy with Mist and Fog 70 21 68 20 94 94 W 3 6 29.97 1015 5 8.0467 0 0
5:15 am 05:15 Cloudy with Mist and Fog 70 21 68 20 94 94 W 5 7 29.97 1015 4 6.43736 0 0
5:56 am 05:56 Cloudy with Mist and Fog 67 19.4 67 19.4 100 100 SW 3 6 30 1016 3 4.82802 0 0
6:49 am 06:49 Cloudy with Mist and Fog 68 20 66 19 94 94 Calm 30 1016 2.5 4.02335 0 0
6:52 am 06:52 Cloudy with Mist and Fog 66 19 66 19 100 100 Calm 30 1016 1 1.60934 0 0
6:56 am 06:56 Cloudy with Mist and Fog 67 19.4 67 19.4 100 100 Calm 30 1016 0.75 1.207005 0 0
6:59 am 06:59 Mostly Cloudy with Fog 66 19 66 19 100 100 Calm 30 1016 0.25 0.402335 0 0
7:56 am 07:56 Mostly Cloudy with Fog 66 18.9 65 18.3 96 96 NW 3 6 30 1016 0.25 0.402335 0 0
8:25 am 08:25 Mostly Cloudy with Mist and Fog 68 20 68 20 100 100 Calm 30 1016 0.75 1.207005 0 0
8:27 am 08:27 Mostly Cloudy with Mist and Fog 68 20 68 20 100 100 Calm 30 1016 1.25 2.011675 0 0
8:38 am 08:38 Mostly Cloudy with Mist and Fog 68 20 68 20 100 100 Calm 30 1016 1 1.60934 0 0
8:44 am 08:44 Mostly Cloudy with Mist and Fog 68 20 68 20 100 100 Calm 30 1016 0.75 1.207005 0 0
8:51 am 08:51 Mostly Cloudy with Mist and Fog 70 21 68 20 94 94 Calm 30 1016 1.25 2.011675 0 0
8:56 am 08:56 Cloudy with Mist and Fog 69 20.6 69 20.6 100 100 Calm 30.01 1016 2 3.21868 0 0
9:07 am 09:07 Cloudy with Mist and Fog 70 21 70 21 100 100 W 3 6 30 1016 4 6.43736 0 0
9:28 am 09:28 Cloudy 70 21 68 20 94 94 WSW 3 6 30 1016 8 12.87472 0 0
9:49 am 09:49 Mostly Cloudy 72 22 68 20 88 88 Calm 30 1016 10 16.0934 0 0
9:56 am 09:56 Partly Cloudy 71 21.7 67 19.4 87 87 Calm 30.01 1016 10 16.0934 0 0
10:56 am 10:56 Mostly Sunny 74 23.3 66 18.9 76 76 Calm 30.02 1017 10 16.0934 0 0
11:56 am 11:56 Partly Cloudy 75 23.9 66 18.9 74 74 Calm 30.01 1016 10 16.0934 0 0
12:23 pm 12:23 Mostly Cloudy 77 25 66 19 69 69 Calm 30 1016 10 16.0934 0 0
12:46 pm 12:46 Mostly Cloudy 77 25 64 18 65 65 Calm 30 1016 10 16.0934 0 0
12:56 pm 12:56 Mostly Cloudy 77 25 67 19.4 71 71 SW 5 7 30 1016 10 16.0934 0 0
1:56 pm 13:56 Mostly Cloudy 79 26.1 67 19.4 67 67 NNW 5 7 29.98 1015 10 16.0934 0 0
2:56 pm 14:56 Cloudy 80 26.7 66 18.9 62 62 Calm 29.97 1015 10 16.0934 0 0
3:56 pm 15:56 Partly Cloudy 80 26.7 66 18.9 62 62 Calm 29.94 1014 10 16.0934 0 0
4:56 pm 16:56 Cloudy 77 25 67 19.4 71 71 WSW 6 9 29.93 1014 10 16.0934 0 0.0254
5:56 pm 17:56 Mostly Cloudy 76 24.4 66 18.9 72 72 Calm 29.93 1014 10 16.0934 0 0
6:56 pm 18:56 Sunny 74 23.3 67 19.4 79 79 WSW 3 6 29.93 1014 10 16.0934 0 0
7:56 pm 19:56 Clear 71 21.7 66 18.9 84 84 S 5 7 29.95 1014 10 16.0934 0 0
8:56 pm 20:56 Clear 68 20 65 18.3 90 90 Calm 29.97 1015 10 16.0934 0 0
9:56 pm 21:56 Mostly Clear 68 20 65 18.3 90 90 SW 3 6 29.99 1016 10 16.0934 0 0
10:56 pm 22:56 Mostly Clear 68 20 65 18.3 90 90 Calm 30 1016 10 16.0934 0 0
11:56 pm 23:56 Partly Cloudy 67 19.4 65 18.3 93 93 Calm 29.99 1016 10 16.0934 0 0

Powered by AerisWeather